sensor_id;sensor_type;location;lat;lon;timestamp;pressure;altitude;pressure_sealevel;temperature;humidity
40908;BME280;51055;59.436;24.778;2023-05-27T00:01:22;102221.94;;;10.85;56.34
40908;BME280;51055;59.436;24.778;2023-05-27T00:03:50;102215.00;;;10.83;56.71
40908;BME280;51055;59.436;24.778;2023-05-27T00:06:18;102221.13;;;10.83;57.45
40908;BME280;51055;59.436;24.778;2023-05-27T00:08:46;102220.47;;;10.80;57.96
40908;BME280;51055;59.436;24.778;2023-05-27T00:11:14;102221.13;;;10.83;58.13
40908;BME280;51055;59.436;24.778;2023-05-27T00:13:41;102220.22;;;10.84;58.25
40908;BME280;51055;59.436;24.778;2023-05-27T00:16:09;102215.25;;;10.78;58.49
40908;BME280;51055;59.436;24.778;2023-05-27T00:18:38;102216.19;;;10.77;58.75
40908;BME280;51055;59.436;24.778;2023-05-27T00:21:06;102217.41;;;10.72;58.23
40908;BME280;51055;59.436;24.778;2023-05-27T00:23:34;102227.16;;;10.71;57.30
40908;BME280;51055;59.436;24.778;2023-05-27T00:26:01;102227.25;;;10.70;57.28
40908;BME280;51055;59.436;24.778;2023-05-27T00:28:29;102231.78;;;10.68;57.94
40908;BME280;51055;59.436;24.778;2023-05-27T00:30:58;102231.69;;;10.69;57.63
40908;BME280;51055;59.436;24.778;2023-05-27T00:33:26;102223.75;;;10.69;57.70
40908;BME280;51055;59.436;24.778;2023-05-27T00:35:53;102230.84;;;10.69;57.18
40908;BME280;51055;59.436;24.778;2023-05-27T00:38:21;102237.44;;;10.62;57.04
40908;BME280;51055;59.436;24.778;2023-05-27T00:40:49;102233.84;;;10.63;57.27
40908;BME280;51055;59.436;24.778;2023-05-27T00:43:17;102237.25;;;10.65;57.63
40908;BME280;51055;59.436;24.778;2023-05-27T00:45:44;102240.75;;;10.65;57.63
40908;BME280;51055;59.436;24.778;2023-05-27T00:48:12;102247.69;;;10.68;57.75
40908;BME280;51055;59.436;24.778;2023-05-27T00:50:40;102235.47;;;10.65;58.46
40908;BME280;51055;59.436;24.778;2023-05-27T00:53:07;102240.00;;;10.63;58.75
40908;BME280;51055;59.436;24.778;2023-05-27T00:55:35;102238.28;;;10.62;58.99
40908;BME280;51055;59.436;24.778;2023-05-27T00:58:04;102234.94;;;10.59;59.35
40908;BME280;51055;59.436;24.778;2023-05-27T01:00:32;102242.56;;;10.65;59.69
40908;BME280;51055;59.436;24.778;2023-05-27T01:03:00;102239.56;;;10.55;60.00
40908;BME280;51055;59.436;24.778;2023-05-27T01:05:27;102242.28;;;10.54;59.84
40908;BME280;51055;59.436;24.778;2023-05-27T01:13:20;102243.50;;;10.48;60.63
40908;BME280;51055;59.436;24.778;2023-05-27T01:15:53;102231.16;;;10.47;61.14
40908;BME280;51055;59.436;24.778;2023-05-27T01:18:22;102247.88;;;10.49;61.03
40908;BME280;51055;59.436;24.778;2023-05-27T01:20:53;102248.78;;;10.48;61.39
40908;BME280;51055;59.436;24.778;2023-05-27T01:23:23;102253.94;;;10.51;61.13
40908;BME280;51055;59.436;24.778;2023-05-27T01:25:51;102251.91;;;10.56;60.86
40908;BME280;51055;59.436;24.778;2023-05-27T01:28:19;102254.56;;;10.56;60.68
40908;BME280;51055;59.436;24.778;2023-05-27T01:30:48;102259.69;;;10.59;60.34
40908;BME280;51055;59.436;24.778;2023-05-27T01:33:20;102262.56;;;10.55;60.73
40908;BME280;51055;59.436;24.778;2023-05-27T01:36:01;102259.00;;;10.56;60.58
40908;BME280;51055;59.436;24.778;2023-05-27T01:38:32;102267.13;;;10.53;61.13
40908;BME280;51055;59.436;24.778;2023-05-27T01:41:00;102262.16;;;10.47;61.30
40908;BME280;51055;59.436;24.778;2023-05-27T01:43:29;102262.22;;;10.45;61.46
40908;BME280;51055;59.436;24.778;2023-05-27T01:45:57;102265.63;;;10.47;62.06
40908;BME280;51055;59.436;24.778;2023-05-27T01:48:25;102270.28;;;10.43;63.13
40908;BME280;51055;59.436;24.778;2023-05-27T01:50:52;102265.22;;;10.39;64.17
40908;BME280;51055;59.436;24.778;2023-05-27T01:53:20;102281.66;;;10.45;64.56
40908;BME280;51055;59.436;24.778;2023-05-27T01:55:48;102285.16;;;10.46;64.79
40908;BME280;51055;59.436;24.778;2023-05-27T01:58:15;102277.38;;;10.43;65.05
40908;BME280;51055;59.436;24.778;2023-05-27T02:00:43;102279.00;;;10.45;65.36
40908;BME280;51055;59.436;24.778;2023-05-27T02:03:11;102272.78;;;10.47;65.68
40908;BME280;51055;59.436;24.778;2023-05-27T02:05:39;102270.00;;;10.48;65.41
40908;BME280;51055;59.436;24.778;2023-05-27T02:08:07;102271.91;;;10.46;65.22
40908;BME280;51055;59.436;24.778;2023-05-27T02:10:35;102277.38;;;10.43;66.07
40908;BME280;51055;59.436;24.778;2023-05-27T02:13:03;102280.63;;;10.48;66.29
40908;BME280;51055;59.436;24.778;2023-05-27T02:15:31;102286.03;;;10.47;66.63
40908;BME280;51055;59.436;24.778;2023-05-27T02:17:59;102278.25;;;10.43;66.90
40908;BME280;51055;59.436;24.778;2023-05-27T02:20:26;102283.69;;;10.40;67.83
40908;BME280;51055;59.436;24.778;2023-05-27T02:22:55;102278.53;;;10.37;67.74
40908;BME280;51055;59.436;24.778;2023-05-27T02:25:22;102281.19;;;10.37;67.89
40908;BME280;51055;59.436;24.778;2023-05-27T02:27:50;102276.06;;;10.34;68.05
40908;BME280;51055;59.436;24.778;2023-05-27T02:30:20;102276.16;;;10.33;68.41
40908;BME280;51055;59.436;24.778;2023-05-27T02:32:47;102274.53;;;10.30;68.61
40908;BME280;51055;59.436;24.778;2023-05-27T02:35:15;102274.53;;;10.30;68.51
40908;BME280;51055;59.436;24.778;2023-05-27T02:37:43;102273.34;;;10.36;69.09
40908;BME280;51055;59.436;24.778;2023-05-27T02:40:10;102278.47;;;10.39;69.80
40908;BME280;51055;59.436;24.778;2023-05-27T02:42:38;102274.38;;;10.33;69.71
40908;BME280;51055;59.436;24.778;2023-05-27T02:45:06;102270.16;;;10.29;70.25
40908;BME280;51055;59.436;24.778;2023-05-27T02:47:35;102262.63;;;10.37;70.52
40908;BME280;51055;59.436;24.778;2023-05-27T02:50:02;102271.97;;;10.44;70.76
40908;BME280;51055;59.436;24.778;2023-05-27T02:52:30;102275.50;;;10.45;70.46
40908;BME280;51055;59.436;24.778;2023-05-27T02:54:58;102271.75;;;10.49;70.50
40908;BME280;51055;59.436;24.778;2023-05-27T02:57:25;102276.34;;;10.45;70.80
40908;BME280;51055;59.436;24.778;2023-05-27T02:59:53;102280.56;;;10.50;70.70
40908;BME280;51055;59.436;24.778;2023-05-27T03:02:21;102272.00;;;10.60;70.24
40908;BME280;51055;59.436;24.778;2023-05-27T03:04:48;102274.06;;;10.55;69.86
40908;BME280;51055;59.436;24.778;2023-05-27T03:07:16;102268.16;;;10.50;70.46
40908;BME280;51055;59.436;24.778;2023-05-27T03:09:44;102278.84;;;10.49;71.09
40908;BME280;51055;59.436;24.778;2023-05-27T03:12:12;102275.94;;;10.53;70.18
40908;BME280;51055;59.436;24.778;2023-05-27T03:14:39;102275.09;;;10.68;70.37
40908;BME280;51055;59.436;24.778;2023-05-27T03:17:07;102271.34;;;10.72;69.68
40908;BME280;51055;59.436;24.778;2023-05-27T03:19:35;102269.28;;;10.77;70.06
40908;BME280;51055;59.436;24.778;2023-05-27T03:22:03;102271.69;;;10.82;70.12
40908;BME280;51055;59.436;24.778;2023-05-27T03:24:31;102275.09;;;10.84;70.04
40908;BME280;51055;59.436;24.778;2023-05-27T03:26:59;102275.44;;;10.78;70.00
40908;BME280;51055;59.436;24.778;2023-05-27T03:29:27;102280.69;;;10.79;70.61
40908;BME280;51055;59.436;24.778;2023-05-27T03:31:55;102289.81;;;10.74;69.92
40908;BME280;51055;59.436;24.778;2023-05-27T03:34:22;102280.84;;;10.76;70.11
40908;BME280;51055;59.436;24.778;2023-05-27T03:36:50;102288.63;;;10.79;69.94
40908;BME280;51055;59.436;24.778;2023-05-27T03:39:18;102277.06;;;10.80;70.04
40908;BME280;51055;59.436;24.778;2023-05-27T03:41:46;102290.06;;;11.01;70.51
40908;BME280;51055;59.436;24.778;2023-05-27T03:44:14;102293.06;;;11.10;69.02
40908;BME280;51055;59.436;24.778;2023-05-27T03:46:42;102289.81;;;11.05;68.75
40908;BME280;51055;59.436;24.778;2023-05-27T03:49:10;102291.13;;;10.98;69.35
40908;BME280;51055;59.436;24.778;2023-05-27T03:51:37;102295.56;;;10.97;69.75
40908;BME280;51055;59.436;24.778;2023-05-27T03:54:05;102301.63;;;10.99;70.11
40908;BME280;51055;59.436;24.778;2023-05-27T03:56:32;102300.63;;;11.02;69.77
40908;BME280;51055;59.436;24.778;2023-05-27T03:59:00;102313.97;;;11.01;69.65
40908;BME280;51055;59.436;24.778;2023-05-27T04:01:28;102313.97;;;11.01;70.08
40908;BME280;51055;59.436;24.778;2023-05-27T04:03:56;102302.81;;;11.10;70.24
40908;BME280;51055;59.436;24.778;2023-05-27T04:06:23;102311.41;;;11.15;69.83
40908;BME280;51055;59.436;24.778;2023-05-27T04:08:52;102314.59;;;11.06;69.20
40908;BME280;51055;59.436;24.778;2023-05-27T04:11:20;102313.28;;;11.13;69.60
40908;BME280;51055;59.436;24.778;2023-05-27T04:13:48;102304.38;;;11.14;70.00
40908;BME280;51055;59.436;24.778;2023-05-27T04:16:16;102309.69;;;11.14;69.56
40908;BME280;51055;59.436;24.778;2023-05-27T04:18:44;102313.28;;;11.13;68.21
40908;BME280;51055;59.436;24.778;2023-05-27T04:21:16;102320.13;;;11.17;68.45
40908;BME280;51055;59.436;24.778;2023-05-27T04:23:44;102309.50;;;11.17;66.41
40908;BME280;51055;59.436;24.778;2023-05-27T04:26:12;102313.03;;;11.17;66.03
40908;BME280;51055;59.436;24.778;2023-05-27T04:28:40;102322.63;;;11.20;65.26
40908;BME280;51055;59.436;24.778;2023-05-27T04:31:08;102321.09;;;11.16;64.94
40908;BME280;51055;59.436;24.778;2023-05-27T04:33:39;102334.50;;;11.13;65.07
40908;BME280;51055;59.436;24.778;2023-05-27T04:36:07;102334.28;;;11.17;64.51
40908;BME280;51055;59.436;24.778;2023-05-27T04:38:35;102323.75;;;11.16;64.16
40908;BME280;51055;59.436;24.778;2023-05-27T04:41:02;102331.38;;;11.22;64.38
40908;BME280;51055;59.436;24.778;2023-05-27T04:43:31;102329.28;;;11.27;64.87
40908;BME280;51055;59.436;24.778;2023-05-27T04:45:59;102342.41;;;11.30;65.18
40908;BME280;51055;59.436;24.778;2023-05-27T04:48:30;102330.84;;;11.31;64.68
40908;BME280;51055;59.436;24.778;2023-05-27T04:50:57;102337.88;;;11.32;64.53
40908;BME280;51055;59.436;24.778;2023-05-27T04:53:25;102339.50;;;11.34;65.18
40908;BME280;51055;59.436;24.778;2023-05-27T04:55:53;102347.53;;;11.33;63.48
40908;BME280;51055;59.436;24.778;2023-05-27T04:58:20;102350.28;;;11.31;61.91
40908;BME280;51055;59.436;24.778;2023-05-27T05:00:48;102351.31;;;11.29;61.19
40908;BME280;51055;59.436;24.778;2023-05-27T05:03:22;102349.34;;;11.32;59.57
40908;BME280;51055;59.436;24.778;2023-05-27T05:05:51;102352.44;;;11.40;59.65
40908;BME280;51055;59.436;24.778;2023-05-27T05:08:20;102346.31;;;11.54;59.42
40908;BME280;51055;59.436;24.778;2023-05-27T05:10:48;102347.19;;;11.70;58.77
40908;BME280;51055;59.436;24.778;2023-05-27T05:13:17;102349.53;;;11.90;59.18
40908;BME280;51055;59.436;24.778;2023-05-27T05:15:45;102344.34;;;12.03;57.26
40908;BME280;51055;59.436;24.778;2023-05-27T05:18:12;102346.25;;;12.15;56.79
40908;BME280;51055;59.436;24.778;2023-05-27T05:20:40;102347.69;;;12.35;56.19
40908;BME280;51055;59.436;24.778;2023-05-27T05:23:08;102339.81;;;12.62;55.25
40908;BME280;51055;59.436;24.778;2023-05-27T05:25:36;102341.03;;;12.84;54.88
40908;BME280;51055;59.436;24.778;2023-05-27T05:28:05;102349.41;;;12.92;54.70
40908;BME280;51055;59.436;24.778;2023-05-27T05:30:33;102340.16;;;12.98;54.05
40908;BME280;51055;59.436;24.778;2023-05-27T05:33:01;102343.59;;;13.00;53.54
40908;BME280;51055;59.436;24.778;2023-05-27T05:35:29;102350.03;;;13.24;54.13
40908;BME280;51055;59.436;24.778;2023-05-27T05:37:56;102354.47;;;13.38;53.13
40908;BME280;51055;59.436;24.778;2023-05-27T05:40:24;102358.44;;;13.45;52.34
40908;BME280;51055;59.436;24.778;2023-05-27T05:42:52;102367.09;;;13.48;52.57
40908;BME280;51055;59.436;24.778;2023-05-27T05:45:19;102361.28;;;13.69;52.31
40908;BME280;51055;59.436;24.778;2023-05-27T05:47:47;102372.00;;;13.81;52.14
40908;BME280;51055;59.436;24.778;2023-05-27T05:50:15;102376.75;;;13.90;51.74
40908;BME280;51055;59.436;24.778;2023-05-27T05:52:42;102372.59;;;13.99;51.89
40908;BME280;51055;59.436;24.778;2023-05-27T05:55:10;102374.09;;;14.03;50.92
40908;BME280;51055;59.436;24.778;2023-05-27T05:57:38;102375.06;;;14.15;51.05
40908;BME280;51055;59.436;24.778;2023-05-27T06:00:06;102378.16;;;14.21;50.40
40908;BME280;51055;59.436;24.778;2023-05-27T06:02:36;102378.59;;;14.28;49.73
40908;BME280;51055;59.436;24.778;2023-05-27T06:05:04;102379.41;;;14.42;49.44
40908;BME280;51055;59.436;24.778;2023-05-27T06:07:32;102383.34;;;14.62;49.83
40908;BME280;51055;59.436;24.778;2023-05-27T06:10:00;102392.84;;;14.66;49.34
40908;BME280;51055;59.436;24.778;2023-05-27T06:12:28;102393.28;;;14.85;48.77
40908;BME280;51055;59.436;24.778;2023-05-27T06:14:55;102390.22;;;15.02;48.18
40908;BME280;51055;59.436;24.778;2023-05-27T06:17:23;102395.03;;;15.10;46.18
40908;BME280;51055;59.436;24.778;2023-05-27T06:19:51;102394.75;;;15.38;45.14
40908;BME280;51055;59.436;24.778;2023-05-27T06:22:18;102393.06;;;15.85;43.99
40908;BME280;51055;59.436;24.778;2023-05-27T06:24:46;102399.03;;;16.23;44.13
40908;BME280;51055;59.436;24.778;2023-05-27T06:27:14;102391.16;;;17.98;41.29
40908;BME280;51055;59.436;24.778;2023-05-27T06:29:42;102402.44;;;18.75;39.43
40908;BME280;51055;59.436;24.778;2023-05-27T06:32:11;102407.03;;;20.11;35.92
40908;BME280;51055;59.436;24.778;2023-05-27T06:34:39;102412.72;;;22.88;31.80
40908;BME280;51055;59.436;24.778;2023-05-27T06:37:07;102424.03;;;25.04;27.56
40908;BME280;51055;59.436;24.778;2023-05-27T06:39:35;102416.06;;;25.72;26.60
40908;BME280;51055;59.436;24.778;2023-05-27T06:42:03;102420.06;;;24.60;28.09
40908;BME280;51055;59.436;24.778;2023-05-27T06:44:31;102425.25;;;21.84;30.80
40908;BME280;51055;59.436;24.778;2023-05-27T06:46:58;102442.72;;;19.75;34.09
40908;BME280;51055;59.436;24.778;2023-05-27T06:49:26;102435.22;;;20.17;33.43
40908;BME280;51055;59.436;24.778;2023-05-27T06:51:54;102433.78;;;21.79;30.92
40908;BME280;51055;59.436;24.778;2023-05-27T06:54:22;102444.28;;;19.97;34.07
40908;BME280;51055;59.436;24.778;2023-05-27T06:56:50;102448.41;;;18.71;36.02
40908;BME280;51055;59.436;24.778;2023-05-27T06:59:17;102444.81;;;18.92;35.69
40908;BME280;51055;59.436;24.778;2023-05-27T07:01:45;102448.19;;;22.15;30.60
40908;BME280;51055;59.436;24.778;2023-05-27T07:04:13;102440.97;;;25.14;25.69
40908;BME280;51055;59.436;24.778;2023-05-27T07:06:42;102435.78;;;25.97;24.38
40908;BME280;51055;59.436;24.778;2023-05-27T07:09:10;102447.78;;;26.33;22.80
40908;BME280;51055;59.436;24.778;2023-05-27T07:11:38;102451.06;;;26.81;23.27
40908;BME280;51055;59.436;24.778;2023-05-27T07:14:06;102449.72;;;26.77;23.09
40908;BME280;51055;59.436;24.778;2023-05-27T07:16:33;102448.56;;;26.19;23.91
40908;BME280;51055;59.436;24.778;2023-05-27T07:19:01;102447.53;;;26.20;23.45
40908;BME280;51055;59.436;24.778;2023-05-27T07:21:28;102453.19;;;25.88;24.61
40908;BME280;51055;59.436;24.778;2023-05-27T07:23:56;102465.84;;;25.73;24.39
40908;BME280;51055;59.436;24.778;2023-05-27T07:26:26;102458.91;;;25.31;24.64
40908;BME280;51055;59.436;24.778;2023-05-27T07:28:54;102467.31;;;25.83;24.20
40908;BME280;51055;59.436;24.778;2023-05-27T07:31:22;102473.97;;;25.42;24.10
40908;BME280;51055;59.436;24.778;2023-05-27T07:33:49;102471.25;;;24.95;24.83
40908;BME280;51055;59.436;24.778;2023-05-27T07:36:17;102464.50;;;24.43;25.37
40908;BME280;51055;59.436;24.778;2023-05-27T07:38:45;102472.97;;;23.49;25.60
40908;BME280;51055;59.436;24.778;2023-05-27T07:41:14;102482.50;;;23.02;26.80
40908;BME280;51055;59.436;24.778;2023-05-27T07:43:42;102469.00;;;22.76;26.62
40908;BME280;51055;59.436;24.778;2023-05-27T07:46:10;102467.84;;;22.61;28.05
40908;BME280;51055;59.436;24.778;2023-05-27T07:48:38;102471.38;;;22.00;28.25
40908;BME280;51055;59.436;24.778;2023-05-27T07:51:06;102462.59;;;21.44;29.65
40908;BME280;51055;59.436;24.778;2023-05-27T07:53:36;102466.88;;;21.64;29.25
40908;BME280;51055;59.436;24.778;2023-05-27T07:56:04;102469.25;;;21.49;28.10
40908;BME280;51055;59.436;24.778;2023-05-27T07:58:32;102468.94;;;21.25;27.85
40908;BME280;51055;59.436;24.778;2023-05-27T08:00:59;102469.13;;;21.14;28.46
40908;BME280;51055;59.436;24.778;2023-05-27T08:03:27;102474.09;;;20.53;28.52
40908;BME280;51055;59.436;24.778;2023-05-27T08:05:55;102464.59;;;20.30;29.31
40908;BME280;51055;59.436;24.778;2023-05-27T08:08:22;102470.66;;;19.84;29.58
40908;BME280;51055;59.436;24.778;2023-05-27T08:10:50;102481.22;;;19.56;29.32
40908;BME280;51055;59.436;24.778;2023-05-27T08:13:19;102486.09;;;18.81;30.71
40908;BME280;51055;59.436;24.778;2023-05-27T08:15:47;102485.72;;;18.65;32.23
40908;BME280;51055;59.436;24.778;2023-05-27T08:18:15;102478.00;;;18.40;33.18
40908;BME280;51055;59.436;24.778;2023-05-27T08:20:43;102473.84;;;17.83;33.12
40908;BME280;51055;59.436;24.778;2023-05-27T08:23:11;102477.75;;;17.79;34.59
40908;BME280;51055;59.436;24.778;2023-05-27T08:25:38;102483.63;;;17.73;34.22
40908;BME280;51055;59.436;24.778;2023-05-27T08:28:06;102489.25;;;17.14;35.14
40908;BME280;51055;59.436;24.778;2023-05-27T08:30:33;102483.28;;;17.11;36.34
40908;BME280;51055;59.436;24.778;2023-05-27T08:33:01;102500.56;;;17.07;36.42
40908;BME280;51055;59.436;24.778;2023-05-27T08:35:29;102494.34;;;16.84;37.47
40908;BME280;51055;59.436;24.778;2023-05-27T08:37:56;102499.91;;;16.70;37.42
40908;BME280;51055;59.436;24.778;2023-05-27T08:40:24;102504.25;;;16.60;38.05
40908;BME280;51055;59.436;24.778;2023-05-27T08:42:55;102501.28;;;16.52;36.50
40908;BME280;51055;59.436;24.778;2023-05-27T08:45:23;102502.19;;;16.40;37.87
40908;BME280;51055;59.436;24.778;2023-05-27T08:47:50;102503.53;;;16.58;37.97
40908;BME280;51055;59.436;24.778;2023-05-27T08:50:20;102493.81;;;16.44;37.91
40908;BME280;51055;59.436;24.778;2023-05-27T08:52:53;102492.09;;;16.43;38.06
40908;BME280;51055;59.436;24.778;2023-05-27T08:55:21;102500.28;;;16.42;36.32
40908;BME280;51055;59.436;24.778;2023-05-27T08:57:51;102509.97;;;16.32;36.11
40908;BME280;51055;59.436;24.778;2023-05-27T09:00:19;102506.94;;;16.36;36.64
40908;BME280;51055;59.436;24.778;2023-05-27T09:02:47;102504.84;;;16.29;37.02
40908;BME280;51055;59.436;24.778;2023-05-27T09:05:15;102511.41;;;16.25;36.92
40908;BME280;51055;59.436;24.778;2023-05-27T09:07:44;102516.66;;;16.26;35.99
40908;BME280;51055;59.436;24.778;2023-05-27T09:10:11;102511.53;;;15.99;35.21
40908;BME280;51055;59.436;24.778;2023-05-27T09:12:42;102508.91;;;15.87;36.36
40908;BME280;51055;59.436;24.778;2023-05-27T09:15:11;102513.72;;;15.82;35.74
40908;BME280;51055;59.436;24.778;2023-05-27T09:17:41;102512.31;;;15.89;35.27
40908;BME280;51055;59.436;24.778;2023-05-27T09:20:10;102502.16;;;15.81;36.81
40908;BME280;51055;59.436;24.778;2023-05-27T09:22:40;102506.97;;;15.89;38.91
40908;BME280;51055;59.436;24.778;2023-05-27T09:25:09;102505.41;;;15.97;39.21
40908;BME280;51055;59.436;24.778;2023-05-27T09:27:42;102509.56;;;16.01;39.41
40908;BME280;51055;59.436;24.778;2023-05-27T09:30:11;102505.63;;;15.94;37.80
40908;BME280;51055;59.436;24.778;2023-05-27T09:32:39;102498.66;;;15.68;38.21
40908;BME280;51055;59.436;24.778;2023-05-27T09:35:08;102505.47;;;15.85;39.29
40908;BME280;51055;59.436;24.778;2023-05-27T09:37:38;102501.69;;;15.87;39.75
40908;BME280;51055;59.436;24.778;2023-05-27T09:40:10;102507.69;;;15.91;39.69
40908;BME280;51055;59.436;24.778;2023-05-27T09:42:46;102506.50;;;15.95;39.31
40908;BME280;51055;59.436;24.778;2023-05-27T09:45:20;102494.47;;;15.77;40.29
40908;BME280;51055;59.436;24.778;2023-05-27T09:47:52;102497.22;;;15.88;38.73
40908;BME280;51055;59.436;24.778;2023-05-27T09:50:21;102505.41;;;15.74;38.83
40908;BME280;51055;59.436;24.778;2023-05-27T09:52:49;102512.22;;;15.78;37.81
40908;BME280;51055;59.436;24.778;2023-05-27T09:55:33;102510.75;;;15.74;37.72
40908;BME280;51055;59.436;24.778;2023-05-27T09:58:01;102519.63;;;15.74;38.30
40908;BME280;51055;59.436;24.778;2023-05-27T10:00:29;102516.81;;;15.88;37.92
40908;BME280;51055;59.436;24.778;2023-05-27T10:03:00;102521.41;;;15.86;37.74
40908;BME280;51055;59.436;24.778;2023-05-27T10:05:29;102520.34;;;15.89;37.83
40908;BME280;51055;59.436;24.778;2023-05-27T10:07:57;102516.97;;;15.98;39.56
40908;BME280;51055;59.436;24.778;2023-05-27T10:10:28;102519.84;;;15.71;38.42
40908;BME280;51055;59.436;24.778;2023-05-27T10:12:57;102523.28;;;15.73;37.13
40908;BME280;51055;59.436;24.778;2023-05-27T10:15:27;102520.56;;;15.86;37.15
40908;BME280;51055;59.436;24.778;2023-05-27T10:17:57;102520.66;;;15.84;36.64
40908;BME280;51055;59.436;24.778;2023-05-27T10:20:49;102524.81;;;15.88;37.45
40908;BME280;51055;59.436;24.778;2023-05-27T10:23:19;102536.38;;;15.89;37.35
40908;BME280;51055;59.436;24.778;2023-05-27T10:25:55;102531.19;;;15.75;37.40
40908;BME280;51055;59.436;24.778;2023-05-27T10:28:34;102529.69;;;15.83;37.04
40908;BME280;51055;59.436;24.778;2023-05-27T10:31:11;102528.22;;;15.67;36.18
40908;BME280;51055;59.436;24.778;2023-05-27T10:33:45;102531.53;;;15.57;36.89
40908;BME280;51055;59.436;24.778;2023-05-27T10:36:21;102539.03;;;15.65;35.97
40908;BME280;51055;59.436;24.778;2023-05-27T10:39:00;102529.63;;;15.59;36.58
40908;BME280;51055;59.436;24.778;2023-05-27T10:41:38;102529.91;;;15.68;37.27
40908;BME280;51055;59.436;24.778;2023-05-27T10:44:06;102531.00;;;15.65;36.95
40908;BME280;51055;59.436;24.778;2023-05-27T10:46:42;102529.53;;;15.48;37.62
40908;BME280;51055;59.436;24.778;2023-05-27T10:49:14;102531.44;;;15.46;38.48
40908;BME280;51055;59.436;24.778;2023-05-27T10:51:42;102536.88;;;15.57;37.94
40908;BME280;51055;59.436;24.778;2023-05-27T10:54:11;102534.34;;;15.56;37.29
40908;BME280;51055;59.436;24.778;2023-05-27T10:56:52;102522.03;;;15.53;37.66
40908;BME280;51055;59.436;24.778;2023-05-27T10:59:23;102522.03;;;15.41;38.56
40908;BME280;51055;59.436;24.778;2023-05-27T11:01:52;102528.53;;;15.62;38.97
40908;BME280;51055;59.436;24.778;2023-05-27T11:04:22;102521.91;;;15.42;38.08
40908;BME280;51055;59.436;24.778;2023-05-27T11:06:57;102512.81;;;15.45;39.13
40908;BME280;51055;59.436;24.778;2023-05-27T11:09:31;102523.41;;;15.59;38.34
40908;BME280;51055;59.436;24.778;2023-05-27T11:12:13;102515.38;;;15.59;38.42
40908;BME280;51055;59.436;24.778;2023-05-27T11:14:45;102516.25;;;15.47;38.56
40908;BME280;51055;59.436;24.778;2023-05-27T11:17:13;102519.69;;;15.36;40.02
40908;BME280;51055;59.436;24.778;2023-05-27T11:19:42;102514.13;;;15.27;39.87
40908;BME280;51055;59.436;24.778;2023-05-27T11:22:11;102515.19;;;15.37;39.65
40908;BME280;51055;59.436;24.778;2023-05-27T11:24:39;102514.75;;;15.43;39.14
40908;BME280;51055;59.436;24.778;2023-05-27T11:27:11;102510.13;;;15.45;40.26
40908;BME280;51055;59.436;24.778;2023-05-27T11:29:52;102516.59;;;15.30;39.81
40908;BME280;51055;59.436;24.778;2023-05-27T11:32:20;102512.97;;;15.31;39.14
40908;BME280;51055;59.436;24.778;2023-05-27T11:34:48;102521.94;;;15.30;39.54
40908;BME280;51055;59.436;24.778;2023-05-27T11:37:16;102513.50;;;15.23;37.84
40908;BME280;51055;59.436;24.778;2023-05-27T11:39:50;102522.47;;;15.22;38.07
40908;BME280;51055;59.436;24.778;2023-05-27T11:42:23;102519.06;;;15.20;38.61
40908;BME280;51055;59.436;24.778;2023-05-27T11:44:53;102521.31;;;15.13;39.47
40908;BME280;51055;59.436;24.778;2023-05-27T11:47:22;102525.47;;;15.18;39.48
40908;BME280;51055;59.436;24.778;2023-05-27T11:49:50;102524.50;;;15.31;38.27
40908;BME280;51055;59.436;24.778;2023-05-27T11:52:18;102519.47;;;15.27;39.86
40908;BME280;51055;59.436;24.778;2023-05-27T11:54:49;102525.13;;;15.35;39.33
40908;BME280;51055;59.436;24.778;2023-05-27T11:57:25;102525.25;;;15.21;37.66
40908;BME280;51055;59.436;24.778;2023-05-27T11:59:52;102520.88;;;15.20;39.05
40908;BME280;51055;59.436;24.778;2023-05-27T12:02:20;102512.84;;;15.20;39.47
40908;BME280;51055;59.436;24.778;2023-05-27T12:04:49;102515.94;;;15.26;37.81
40908;BME280;51055;59.436;24.778;2023-05-27T12:07:17;102511.78;;;15.09;38.81
40908;BME280;51055;59.436;24.778;2023-05-27T12:09:48;102500.66;;;15.16;39.52
40908;BME280;51055;59.436;24.778;2023-05-27T12:12:19;102507.41;;;15.21;38.35
40908;BME280;51055;59.436;24.778;2023-05-27T12:14:47;102503.00;;;15.20;39.03
40908;BME280;51055;59.436;24.778;2023-05-27T12:17:15;102500.56;;;15.17;37.33
40908;BME280;51055;59.436;24.778;2023-05-27T12:19:43;102508.66;;;15.16;37.28
40908;BME280;51055;59.436;24.778;2023-05-27T12:22:10;102502.59;;;15.13;37.71
40908;BME280;51055;59.436;24.778;2023-05-27T12:24:38;102501.50;;;15.16;38.51
40908;BME280;51055;59.436;24.778;2023-05-27T12:27:05;102497.22;;;15.26;38.15
40908;BME280;51055;59.436;24.778;2023-05-27T12:29:33;102503.31;;;15.28;37.27
40908;BME280;51055;59.436;24.778;2023-05-27T12:32:02;102506.66;;;15.06;39.16
40908;BME280;51055;59.436;24.778;2023-05-27T12:34:30;102502.06;;;15.21;38.77
40908;BME280;51055;59.436;24.778;2023-05-27T12:36:58;102503.53;;;15.12;36.58
40908;BME280;51055;59.436;24.778;2023-05-27T12:39:26;102495.44;;;15.14;39.08
40908;BME280;51055;59.436;24.778;2023-05-27T12:41:53;102495.75;;;15.09;38.82
40908;BME280;51055;59.436;24.778;2023-05-27T12:44:21;102498.53;;;15.08;39.12
40908;BME280;51055;59.436;24.778;2023-05-27T12:46:49;102497.91;;;15.04;40.49
40908;BME280;51055;59.436;24.778;2023-05-27T12:49:17;102499.28;;;15.10;40.74
40908;BME280;51055;59.436;24.778;2023-05-27T12:51:45;102497.56;;;15.09;41.04
40908;BME280;51055;59.436;24.778;2023-05-27T12:54:12;102500.44;;;15.06;40.72